sensor_id;sensor_type;location;lat;lon;timestamp;temperature;humidity
25280;DHT22;13225;47.804;12.116;2022-07-05T00:00:44;17.10;99.90
25280;DHT22;13225;47.804;12.116;2022-07-05T00:03:10;17.10;99.90
25280;DHT22;13225;47.804;12.116;2022-07-05T00:05:37;17.10;99.90
25280;DHT22;13225;47.804;12.116;2022-07-05T00:08:03;17.10;99.90
25280;DHT22;13225;47.804;12.116;2022-07-05T00:10:29;17.10;99.90
25280;DHT22;13225;47.804;12.116;2022-07-05T00:12:55;17.00;99.90
25280;DHT22;13225;47.804;12.116;2022-07-05T00:15:21;17.10;99.90
25280;DHT22;13225;47.804;12.116;2022-07-05T00:17:47;17.00;99.90
25280;DHT22;13225;47.804;12.116;2022-07-05T00:20:13;17.10;99.90
25280;DHT22;13225;47.804;12.116;2022-07-05T00:22:39;17.00;99.90
25280;DHT22;13225;47.804;12.116;2022-07-05T00:25:05;17.00;99.90
25280;DHT22;13225;47.804;12.116;2022-07-05T00:27:31;17.00;99.90
25280;DHT22;13225;47.804;12.116;2022-07-05T00:29:56;17.10;99.90
25280;DHT22;13225;47.804;12.116;2022-07-05T00:32:22;17.00;99.90
25280;DHT22;13225;47.804;12.116;2022-07-05T00:34:48;16.90;99.90
25280;DHT22;13225;47.804;12.116;2022-07-05T00:37:14;16.90;99.90
25280;DHT22;13225;47.804;12.116;2022-07-05T00:39:39;16.90;99.90
25280;DHT22;13225;47.804;12.116;2022-07-05T00:42:05;16.90;99.90
25280;DHT22;13225;47.804;12.116;2022-07-05T00:44:33;16.90;99.90
25280;DHT22;13225;47.804;12.116;2022-07-05T00:47:01;16.90;99.90
25280;DHT22;13225;47.804;12.116;2022-07-05T00:49:28;16.90;99.90
25280;DHT22;13225;47.804;12.116;2022-07-05T00:51:54;17.00;99.90
25280;DHT22;13225;47.804;12.116;2022-07-05T00:54:20;17.00;99.90
25280;DHT22;13225;47.804;12.116;2022-07-05T00:56:46;17.00;99.90
25280;DHT22;13225;47.804;12.116;2022-07-05T00:59:13;17.10;99.90
25280;DHT22;13225;47.804;12.116;2022-07-05T01:01:38;17.10;99.90
25280;DHT22;13225;47.804;12.116;2022-07-05T01:04:04;17.10;99.90
25280;DHT22;13225;47.804;12.116;2022-07-05T01:06:30;17.10;99.90
25280;DHT22;13225;47.804;12.116;2022-07-05T01:08:56;17.20;99.90
25280;DHT22;13225;47.804;12.116;2022-07-05T01:11:22;17.20;99.90
25280;DHT22;13225;47.804;12.116;2022-07-05T01:13:48;17.30;99.90
25280;DHT22;13225;47.804;12.116;2022-07-05T01:16:14;17.30;99.90
25280;DHT22;13225;47.804;12.116;2022-07-05T01:18:39;17.30;99.90
25280;DHT22;13225;47.804;12.116;2022-07-05T01:21:05;17.30;99.90
25280;DHT22;13225;47.804;12.116;2022-07-05T01:23:32;17.30;99.90
25280;DHT22;13225;47.804;12.116;2022-07-05T01:26:00;17.30;99.90
25280;DHT22;13225;47.804;12.116;2022-07-05T01:28:27;17.20;99.90
25280;DHT22;13225;47.804;12.116;2022-07-05T01:30:52;17.20;99.90
25280;DHT22;13225;47.804;12.116;2022-07-05T01:33:18;17.20;99.90
25280;DHT22;13225;47.804;12.116;2022-07-05T01:35:44;17.10;99.90
25280;DHT22;13225;47.804;12.116;2022-07-05T01:38:11;17.20;99.90
25280;DHT22;13225;47.804;12.116;2022-07-05T01:40:37;17.10;99.90
25280;DHT22;13225;47.804;12.116;2022-07-05T01:43:04;17.10;99.90
25280;DHT22;13225;47.804;12.116;2022-07-05T01:45:30;17.10;99.90
25280;DHT22;13225;47.804;12.116;2022-07-05T01:48:17;17.10;99.90
25280;DHT22;13225;47.804;12.116;2022-07-05T01:50:57;17.20;99.90
25280;DHT22;13225;47.804;12.116;2022-07-05T01:53:32;17.10;99.90
25280;DHT22;13225;47.804;12.116;2022-07-05T01:56:00;17.10;99.90
25280;DHT22;13225;47.804;12.116;2022-07-05T01:58:27;17.10;99.90
25280;DHT22;13225;47.804;12.116;2022-07-05T02:00:54;17.10;99.90
25280;DHT22;13225;47.804;12.116;2022-07-05T02:03:21;17.10;99.90
25280;DHT22;13225;47.804;12.116;2022-07-05T02:05:47;17.10;99.90
25280;DHT22;13225;47.804;12.116;2022-07-05T02:08:14;17.00;99.90
25280;DHT22;13225;47.804;12.116;2022-07-05T02:10:40;17.00;99.90
25280;DHT22;13225;47.804;12.116;2022-07-05T02:13:06;17.00;99.90
25280;DHT22;13225;47.804;12.116;2022-07-05T02:15:33;17.00;99.90
25280;DHT22;13225;47.804;12.116;2022-07-05T02:18:01;17.00;99.90
25280;DHT22;13225;47.804;12.116;2022-07-05T02:20:27;17.00;99.90
25280;DHT22;13225;47.804;12.116;2022-07-05T02:22:53;17.00;99.90
25280;DHT22;13225;47.804;12.116;2022-07-05T02:25:18;17.00;99.90
25280;DHT22;13225;47.804;12.116;2022-07-05T02:27:44;17.00;99.90
25280;DHT22;13225;47.804;12.116;2022-07-05T02:30:11;17.00;99.90
25280;DHT22;13225;47.804;12.116;2022-07-05T02:32:36;17.00;99.90
25280;DHT22;13225;47.804;12.116;2022-07-05T02:35:03;17.00;99.90
25280;DHT22;13225;47.804;12.116;2022-07-05T02:37:29;17.10;99.90
25280;DHT22;13225;47.804;12.116;2022-07-05T02:39:55;17.10;99.90
25280;DHT22;13225;47.804;12.116;2022-07-05T02:42:21;17.10;99.90
25280;DHT22;13225;47.804;12.116;2022-07-05T02:44:46;17.00;99.90
25280;DHT22;13225;47.804;12.116;2022-07-05T02:47:12;17.00;99.90
25280;DHT22;13225;47.804;12.116;2022-07-05T02:49:38;17.00;99.90
25280;DHT22;13225;47.804;12.116;2022-07-05T02:52:03;17.00;99.90
25280;DHT22;13225;47.804;12.116;2022-07-05T02:54:29;17.00;99.90
25280;DHT22;13225;47.804;12.116;2022-07-05T02:56:55;17.00;99.90
25280;DHT22;13225;47.804;12.116;2022-07-05T02:59:20;17.00;99.90
25280;DHT22;13225;47.804;12.116;2022-07-05T03:01:46;17.00;99.90
25280;DHT22;13225;47.804;12.116;2022-07-05T03:04:12;17.00;99.90
25280;DHT22;13225;47.804;12.116;2022-07-05T03:06:37;17.00;99.90
25280;DHT22;13225;47.804;12.116;2022-07-05T03:09:03;17.10;99.90
25280;DHT22;13225;47.804;12.116;2022-07-05T03:11:29;17.00;99.90
25280;DHT22;13225;47.804;12.116;2022-07-05T03:13:56;17.00;99.90
25280;DHT22;13225;47.804;12.116;2022-07-05T03:16:22;17.00;99.90
25280;DHT22;13225;47.804;12.116;2022-07-05T03:18:50;17.00;99.90
25280;DHT22;13225;47.804;12.116;2022-07-05T03:21:16;16.90;99.90
25280;DHT22;13225;47.804;12.116;2022-07-05T03:23:42;16.90;99.90
25280;DHT22;13225;47.804;12.116;2022-07-05T03:26:08;16.90;99.90
25280;DHT22;13225;47.804;12.116;2022-07-05T03:28:34;16.90;99.90
25280;DHT22;13225;47.804;12.116;2022-07-05T03:30:59;16.90;99.90
25280;DHT22;13225;47.804;12.116;2022-07-05T03:33:26;16.90;99.90
25280;DHT22;13225;47.804;12.116;2022-07-05T03:35:51;17.00;99.90
25280;DHT22;13225;47.804;12.116;2022-07-05T03:38:17;17.00;99.90
25280;DHT22;13225;47.804;12.116;2022-07-05T03:40:43;17.00;99.90
25280;DHT22;13225;47.804;12.116;2022-07-05T03:43:09;17.00;99.90
25280;DHT22;13225;47.804;12.116;2022-07-05T03:45:34;17.00;99.90
25280;DHT22;13225;47.804;12.116;2022-07-05T03:48:00;17.00;99.90
25280;DHT22;13225;47.804;12.116;2022-07-05T03:50:27;17.10;99.90
25280;DHT22;13225;47.804;12.116;2022-07-05T03:52:53;17.10;99.90
25280;DHT22;13225;47.804;12.116;2022-07-05T03:55:19;17.00;99.90
25280;DHT22;13225;47.804;12.116;2022-07-05T03:57:44;17.00;99.90
25280;DHT22;13225;47.804;12.116;2022-07-05T04:00:11;17.00;99.90
25280;DHT22;13225;47.804;12.116;2022-07-05T04:02:37;17.00;99.90
25280;DHT22;13225;47.804;12.116;2022-07-05T04:05:04;17.00;99.90
25280;DHT22;13225;47.804;12.116;2022-07-05T04:07:30;17.10;99.90
25280;DHT22;13225;47.804;12.116;2022-07-05T04:09:55;17.10;99.90
25280;DHT22;13225;47.804;12.116;2022-07-05T04:12:21;17.20;99.90
25280;DHT22;13225;47.804;12.116;2022-07-05T04:14:47;17.20;99.90
25280;DHT22;13225;47.804;12.116;2022-07-05T04:17:12;17.20;99.90
25280;DHT22;13225;47.804;12.116;2022-07-05T04:19:38;17.20;99.90
25280;DHT22;13225;47.804;12.116;2022-07-05T04:22:04;17.20;99.90
25280;DHT22;13225;47.804;12.116;2022-07-05T04:24:30;17.20;99.90
25280;DHT22;13225;47.804;12.116;2022-07-05T04:26:55;17.20;99.90
25280;DHT22;13225;47.804;12.116;2022-07-05T04:29:21;17.30;99.90
25280;DHT22;13225;47.804;12.116;2022-07-05T04:31:47;17.20;99.90
25280;DHT22;13225;47.804;12.116;2022-07-05T04:34:12;17.20;99.90
25280;DHT22;13225;47.804;12.116;2022-07-05T04:36:38;17.30;99.90
25280;DHT22;13225;47.804;12.116;2022-07-05T04:39:06;17.30;99.90
25280;DHT22;13225;47.804;12.116;2022-07-05T04:41:32;17.40;99.90
25280;DHT22;13225;47.804;12.116;2022-07-05T04:43:58;17.40;99.90
25280;DHT22;13225;47.804;12.116;2022-07-05T04:46:23;17.50;99.90
25280;DHT22;13225;47.804;12.116;2022-07-05T04:48:49;17.50;99.90
25280;DHT22;13225;47.804;12.116;2022-07-05T04:51:15;17.50;99.90
25280;DHT22;13225;47.804;12.116;2022-07-05T04:53:41;17.60;99.90
25280;DHT22;13225;47.804;12.116;2022-07-05T04:56:09;17.60;99.90
25280;DHT22;13225;47.804;12.116;2022-07-05T04:58:34;17.70;99.90
25280;DHT22;13225;47.804;12.116;2022-07-05T05:01:00;17.80;99.90
25280;DHT22;13225;47.804;12.116;2022-07-05T05:03:26;17.90;99.90
25280;DHT22;13225;47.804;12.116;2022-07-05T05:05:52;17.90;99.90
25280;DHT22;13225;47.804;12.116;2022-07-05T05:08:17;17.90;99.90
25280;DHT22;13225;47.804;12.116;2022-07-05T05:10:43;18.00;99.90
25280;DHT22;13225;47.804;12.116;2022-07-05T05:13:08;18.10;99.90
25280;DHT22;13225;47.804;12.116;2022-07-05T05:15:34;18.10;99.90
25280;DHT22;13225;47.804;12.116;2022-07-05T05:18:00;18.20;99.90
25280;DHT22;13225;47.804;12.116;2022-07-05T05:20:26;18.30;99.90
25280;DHT22;13225;47.804;12.116;2022-07-05T05:22:51;18.30;99.90
25280;DHT22;13225;47.804;12.116;2022-07-05T05:25:17;18.30;99.90
25280;DHT22;13225;47.804;12.116;2022-07-05T05:27:49;18.40;99.90
25280;DHT22;13225;47.804;12.116;2022-07-05T05:30:17;18.30;99.90
25280;DHT22;13225;47.804;12.116;2022-07-05T05:32:43;18.40;99.90
25280;DHT22;13225;47.804;12.116;2022-07-05T05:35:09;18.50;99.90
25280;DHT22;13225;47.804;12.116;2022-07-05T05:37:52;18.70;99.90
25280;DHT22;13225;47.804;12.116;2022-07-05T05:40:18;18.50;99.90
25280;DHT22;13225;47.804;12.116;2022-07-05T05:42:44;18.50;99.90
25280;DHT22;13225;47.804;12.116;2022-07-05T05:45:10;18.60;99.90
25280;DHT22;13225;47.804;12.116;2022-07-05T05:47:44;18.60;99.90
25280;DHT22;13225;47.804;12.116;2022-07-05T05:50:10;18.60;99.90
25280;DHT22;13225;47.804;12.116;2022-07-05T05:52:35;18.70;99.90
25280;DHT22;13225;47.804;12.116;2022-07-05T05:55:01;18.90;99.90
25280;DHT22;13225;47.804;12.116;2022-07-05T05:57:26;19.10;99.90
25280;DHT22;13225;47.804;12.116;2022-07-05T05:59:52;19.40;99.90
25280;DHT22;13225;47.804;12.116;2022-07-05T06:02:18;19.50;99.90
25280;DHT22;13225;47.804;12.116;2022-07-05T06:04:43;19.60;99.90
25280;DHT22;13225;47.804;12.116;2022-07-05T06:07:09;19.50;99.90
25280;DHT22;13225;47.804;12.116;2022-07-05T06:09:34;19.50;99.90
25280;DHT22;13225;47.804;12.116;2022-07-05T06:12:00;19.60;99.90
25280;DHT22;13225;47.804;12.116;2022-07-05T06:14:26;19.70;99.90
25280;DHT22;13225;47.804;12.116;2022-07-05T06:16:51;19.50;99.90
25280;DHT22;13225;47.804;12.116;2022-07-05T06:19:17;19.50;99.90
25280;DHT22;13225;47.804;12.116;2022-07-05T06:21:42;19.60;99.90
25280;DHT22;13225;47.804;12.116;2022-07-05T06:24:08;19.60;99.90
25280;DHT22;13225;47.804;12.116;2022-07-05T06:26:34;19.60;99.90
25280;DHT22;13225;47.804;12.116;2022-07-05T06:28:59;19.60;99.90
25280;DHT22;13225;47.804;12.116;2022-07-05T06:31:25;19.60;99.90
25280;DHT22;13225;47.804;12.116;2022-07-05T06:33:51;19.90;99.90
25280;DHT22;13225;47.804;12.116;2022-07-05T06:36:16;19.70;99.90
25280;DHT22;13225;47.804;12.116;2022-07-05T06:38:42;19.90;99.90
25280;DHT22;13225;47.804;12.116;2022-07-05T06:41:07;19.90;99.90
25280;DHT22;13225;47.804;12.116;2022-07-05T06:43:33;20.30;99.90
25280;DHT22;13225;47.804;12.116;2022-07-05T06:45:59;20.40;99.90
25280;DHT22;13225;47.804;12.116;2022-07-05T06:48:25;20.70;99.90
25280;DHT22;13225;47.804;12.116;2022-07-05T06:50:51;20.70;99.90
25280;DHT22;13225;47.804;12.116;2022-07-05T06:53:16;20.50;99.90
25280;DHT22;13225;47.804;12.116;2022-07-05T06:55:42;20.80;99.90
25280;DHT22;13225;47.804;12.116;2022-07-05T06:58:10;21.00;99.90
25280;DHT22;13225;47.804;12.116;2022-07-05T07:00:36;20.90;99.90
25280;DHT22;13225;47.804;12.116;2022-07-05T07:03:02;20.80;99.90
25280;DHT22;13225;47.804;12.116;2022-07-05T07:05:28;20.90;99.90
25280;DHT22;13225;47.804;12.116;2022-07-05T07:07:54;20.70;99.90
25280;DHT22;13225;47.804;12.116;2022-07-05T07:10:38;20.70;99.90
25280;DHT22;13225;47.804;12.116;2022-07-05T07:13:05;20.70;99.90
25280;DHT22;13225;47.804;12.116;2022-07-05T07:15:31;20.90;99.90
25280;DHT22;13225;47.804;12.116;2022-07-05T07:17:57;21.00;99.90
25280;DHT22;13225;47.804;12.116;2022-07-05T07:20:23;21.20;99.90
25280;DHT22;13225;47.804;12.116;2022-07-05T07:22:49;21.40;99.90
25280;DHT22;13225;47.804;12.116;2022-07-05T07:25:15;21.70;99.90
25280;DHT22;13225;47.804;12.116;2022-07-05T07:27:49;21.90;99.90
25280;DHT22;13225;47.804;12.116;2022-07-05T07:30:18;22.00;99.90
25280;DHT22;13225;47.804;12.116;2022-07-05T07:32:45;22.00;99.90
25280;DHT22;13225;47.804;12.116;2022-07-05T07:35:11;21.90;99.90
25280;DHT22;13225;47.804;12.116;2022-07-05T07:37:37;21.90;99.90
25280;DHT22;13225;47.804;12.116;2022-07-05T07:40:04;22.00;99.90
25280;DHT22;13225;47.804;12.116;2022-07-05T07:42:30;22.40;99.90
25280;DHT22;13225;47.804;12.116;2022-07-05T07:44:56;22.50;99.90
25280;DHT22;13225;47.804;12.116;2022-07-05T07:47:21;22.50;99.90
25280;DHT22;13225;47.804;12.116;2022-07-05T07:49:47;22.60;99.90
25280;DHT22;13225;47.804;12.116;2022-07-05T07:52:13;22.60;99.90
25280;DHT22;13225;47.804;12.116;2022-07-05T07:54:39;23.10;99.90
25280;DHT22;13225;47.804;12.116;2022-07-05T07:57:05;22.90;99.90
25280;DHT22;13225;47.804;12.116;2022-07-05T07:59:34;23.00;99.90
25280;DHT22;13225;47.804;12.116;2022-07-05T08:02:00;23.10;99.90
25280;DHT22;13225;47.804;12.116;2022-07-05T08:04:26;22.40;99.90
25280;DHT22;13225;47.804;12.116;2022-07-05T08:06:52;22.20;99.90
25280;DHT22;13225;47.804;12.116;2022-07-05T08:09:17;22.70;99.90
25280;DHT22;13225;47.804;12.116;2022-07-05T08:11:45;22.70;99.90
25280;DHT22;13225;47.804;12.116;2022-07-05T08:14:11;22.80;99.90
25280;DHT22;13225;47.804;12.116;2022-07-05T08:16:36;23.10;99.90
25280;DHT22;13225;47.804;12.116;2022-07-05T08:19:02;22.80;99.90
25280;DHT22;13225;47.804;12.116;2022-07-05T08:21:46;22.30;99.90
25280;DHT22;13225;47.804;12.116;2022-07-05T08:24:14;22.50;99.90
25280;DHT22;13225;47.804;12.116;2022-07-05T08:26:40;22.60;99.90
25280;DHT22;13225;47.804;12.116;2022-07-05T08:29:08;22.50;99.90
25280;DHT22;13225;47.804;12.116;2022-07-05T08:31:38;22.60;99.90
25280;DHT22;13225;47.804;12.116;2022-07-05T08:34:04;22.60;99.90
25280;DHT22;13225;47.804;12.116;2022-07-05T08:36:30;22.70;99.90
25280;DHT22;13225;47.804;12.116;2022-07-05T08:38:56;23.20;99.90
25280;DHT22;13225;47.804;12.116;2022-07-05T08:41:22;23.30;99.90
25280;DHT22;13225;47.804;12.116;2022-07-05T08:43:49;22.90;99.90
25280;DHT22;13225;47.804;12.116;2022-07-05T08:46:16;22.80;99.90
25280;DHT22;13225;47.804;12.116;2022-07-05T08:48:44;22.50;99.90
25280;DHT22;13225;47.804;12.116;2022-07-05T08:51:16;22.50;99.90
25280;DHT22;13225;47.804;12.116;2022-07-05T08:53:44;22.70;99.90
25280;DHT22;13225;47.804;12.116;2022-07-05T08:56:11;23.30;99.90
25280;DHT22;13225;47.804;12.116;2022-07-05T08:58:38;23.60;99.90
25280;DHT22;13225;47.804;12.116;2022-07-05T09:01:05;23.30;99.90
25280;DHT22;13225;47.804;12.116;2022-07-05T09:03:38;23.20;99.90
25280;DHT22;13225;47.804;12.116;2022-07-05T09:06:07;23.20;99.90
25280;DHT22;13225;47.804;12.116;2022-07-05T09:08:36;23.00;99.90
25280;DHT22;13225;47.804;12.116;2022-07-05T09:11:09;23.30;99.90
25280;DHT22;13225;47.804;12.116;2022-07-05T09:13:38;23.30;99.90
25280;DHT22;13225;47.804;12.116;2022-07-05T09:16:04;23.50;99.90
25280;DHT22;13225;47.804;12.116;2022-07-05T09:18:51;23.30;99.90
25280;DHT22;13225;47.804;12.116;2022-07-05T09:21:27;23.50;99.90
25280;DHT22;13225;47.804;12.116;2022-07-05T09:23:57;23.10;99.90
25280;DHT22;13225;47.804;12.116;2022-07-05T09:29:10;22.80;99.90
25280;DHT22;13225;47.804;12.116;2022-07-05T09:31:38;22.60;99.90
25280;DHT22;13225;47.804;12.116;2022-07-05T09:34:10;22.50;99.90
25280;DHT22;13225;47.804;12.116;2022-07-05T09:36:57;22.30;99.90
25280;DHT22;13225;47.804;12.116;2022-07-05T09:42:15;22.80;99.90
25280;DHT22;13225;47.804;12.116;2022-07-05T09:44:45;22.80;99.90
25280;DHT22;13225;47.804;12.116;2022-07-05T09:47:13;23.00;99.90
25280;DHT22;13225;47.804;12.116;2022-07-05T09:49:50;23.20;99.90
25280;DHT22;13225;47.804;12.116;2022-07-05T09:55:02;23.10;99.90
25280;DHT22;13225;47.804;12.116;2022-07-05T09:57:28;23.00;99.90
25280;DHT22;13225;47.804;12.116;2022-07-05T10:02:37;23.10;99.90
25280;DHT22;13225;47.804;12.116;2022-07-05T10:05:14;23.00;99.90
25280;DHT22;13225;47.804;12.116;2022-07-05T10:07:48;23.10;99.90
25280;DHT22;13225;47.804;12.116;2022-07-05T10:10:19;23.30;99.90
25280;DHT22;13225;47.804;12.116;2022-07-05T10:12:47;23.40;99.90
25280;DHT22;13225;47.804;12.116;2022-07-05T10:15:20;23.30;99.90
25280;DHT22;13225;47.804;12.116;2022-07-05T10:17:54;23.30;99.90
25280;DHT22;13225;47.804;12.116;2022-07-05T10:25:40;23.10;99.90
25280;DHT22;13225;47.804;12.116;2022-07-05T10:28:07;23.50;99.90
25280;DHT22;13225;47.804;12.116;2022-07-05T10:30:34;23.80;99.90
25280;DHT22;13225;47.804;12.116;2022-07-05T10:33:05;24.00;99.90
25280;DHT22;13225;47.804;12.116;2022-07-05T10:35:31;23.70;99.90
25280;DHT22;13225;47.804;12.116;2022-07-05T10:37:58;23.50;99.90
25280;DHT22;13225;47.804;12.116;2022-07-05T10:40:24;23.00;99.90
25280;DHT22;13225;47.804;12.116;2022-07-05T10:42:55;23.20;99.90
25280;DHT22;13225;47.804;12.116;2022-07-05T10:53:16;23.30;99.90
25280;DHT22;13225;47.804;12.116;2022-07-05T10:56:09;23.00;99.90
25280;DHT22;13225;47.804;12.116;2022-07-05T10:58:47;22.70;99.90
25280;DHT22;13225;47.804;12.116;2022-07-05T11:03:46;22.90;99.90
25280;DHT22;13225;47.804;12.116;2022-07-05T11:06:22;23.20;99.90
25280;DHT22;13225;47.804;12.116;2022-07-05T11:11:29;23.90;99.90
25280;DHT22;13225;47.804;12.116;2022-07-05T11:13:57;24.00;99.90
25280;DHT22;13225;47.804;12.116;2022-07-05T11:16:36;24.50;99.90
25280;DHT22;13225;47.804;12.116;2022-07-05T11:19:12;24.50;99.90
25280;DHT22;13225;47.804;12.116;2022-07-05T11:21:40;24.50;99.90
25280;DHT22;13225;47.804;12.116;2022-07-05T11:24:26;24.40;99.90
25280;DHT22;13225;47.804;12.116;2022-07-05T11:26:57;24.20;99.90
25280;DHT22;13225;47.804;12.116;2022-07-05T11:29:43;24.20;99.90
25280;DHT22;13225;47.804;12.116;2022-07-05T11:32:13;24.60;99.90
25280;DHT22;13225;47.804;12.116;2022-07-05T11:34:40;25.10;99.90
25280;DHT22;13225;47.804;12.116;2022-07-05T11:39:45;25.40;99.90
25280;DHT22;13225;47.804;12.116;2022-07-05T11:42:21;25.60;99.90
25280;DHT22;13225;47.804;12.116;2022-07-05T11:44:50;25.50;99.90
25280;DHT22;13225;47.804;12.116;2022-07-05T11:47:18;25.10;99.90
25280;DHT22;13225;47.804;12.116;2022-07-05T11:49:55;24.80;99.90
25280;DHT22;13225;47.804;12.116;2022-07-05T11:52:32;24.80;99.90
25280;DHT22;13225;47.804;12.116;2022-07-05T11:54:59;25.20;99.90
25280;DHT22;13225;47.804;12.116;2022-07-05T11:57:25;25.40;99.90
25280;DHT22;13225;47.804;12.116;2022-07-05T11:59:51;25.20;99.90
25280;DHT22;13225;47.804;12.116;2022-07-05T12:02:18;24.90;99.90
25280;DHT22;13225;47.804;12.116;2022-07-05T12:05:01;24.70;99.90
25280;DHT22;13225;47.804;12.116;2022-07-05T12:09:53;24.30;99.90
25280;DHT22;13225;47.804;12.116;2022-07-05T12:12:37;24.40;99.90
25280;DHT22;13225;47.804;12.116;2022-07-05T12:17:43;24.90;99.90
25280;DHT22;13225;47.804;12.116;2022-07-05T12:20:12;24.80;99.90
25280;DHT22;13225;47.804;12.116;2022-07-05T12:22:42;24.90;99.90
25280;DHT22;13225;47.804;12.116;2022-07-05T12:25:13;24.90;99.90
25280;DHT22;13225;47.804;12.116;2022-07-05T12:27:40;25.10;99.90
25280;DHT22;13225;47.804;12.116;2022-07-05T12:30:07;24.90;99.90
25280;DHT22;13225;47.804;12.116;2022-07-05T12:33:05;24.70;99.90
25280;DHT22;13225;47.804;12.116;2022-07-05T12:35:45;24.70;99.90
25280;DHT22;13225;47.804;12.116;2022-07-05T12:38:19;24.60;99.90
25280;DHT22;13225;47.804;12.116;2022-07-05T12:40:57;24.70;99.90
25280;DHT22;13225;47.804;12.116;2022-07-05T12:43:23;24.70;99.90
25280;DHT22;13225;47.804;12.116;2022-07-05T12:46:06;24.50;99.90
25280;DHT22;13225;47.804;12.116;2022-07-05T12:48:39;24.40;99.90
25280;DHT22;13225;47.804;12.116;2022-07-05T12:51:07;24.60;99.90
25280;DHT22;13225;47.804;12.116;2022-07-05T12:53:33;24.50;99.90
25280;DHT22;13225;47.804;12.116;2022-07-05T12:56:22;24.40;99.90
25280;DHT22;13225;47.804;12.116;2022-07-05T12:59:08;24.30;99.90
25280;DHT22;13225;47.804;12.116;2022-07-05T13:01:39;24.20;99.90
25280;DHT22;13225;47.804;12.116;2022-07-05T13:04:16;24.20;99.90
25280;DHT22;13225;47.804;12.116;2022-07-05T13:07:00;24.10;99.90
25280;DHT22;13225;47.804;12.116;2022-07-05T13:12:19;24.10;99.90
25280;DHT22;13225;47.804;12.116;2022-07-05T13:14:50;24.00;99.90
25280;DHT22;13225;47.804;12.116;2022-07-05T13:17:21;23.90;99.90
25280;DHT22;13225;47.804;12.116;2022-07-05T13:19:48;24.00;99.90
25280;DHT22;13225;47.804;12.116;2022-07-05T13:22:14;23.90;99.90
25280;DHT22;13225;47.804;12.116;2022-07-05T13:24:41;23.90;99.90
25280;DHT22;13225;47.804;12.116;2022-07-05T13:27:08;23.80;99.90
25280;DHT22;13225;47.804;12.116;2022-07-05T13:29:34;23.90;99.90
25280;DHT22;13225;47.804;12.116;2022-07-05T13:32:00;23.80;99.90
25280;DHT22;13225;47.804;12.116;2022-07-05T13:34:26;23.90;99.90
25280;DHT22;13225;47.804;12.116;2022-07-05T13:36:56;23.80;99.90
25280;DHT22;13225;47.804;12.116;2022-07-05T13:39:22;23.70;99.90
25280;DHT22;13225;47.804;12.116;2022-07-05T13:41:50;23.60;99.90
25280;DHT22;13225;47.804;12.116;2022-07-05T13:44:17;23.80;99.90
25280;DHT22;13225;47.804;12.116;2022-07-05T13:46:43;23.90;99.90
25280;DHT22;13225;47.804;12.116;2022-07-05T13:49:09;24.10;99.90
25280;DHT22;13225;47.804;12.116;2022-07-05T13:51:35;24.30;99.90
25280;DHT22;13225;47.804;12.116;2022-07-05T13:54:00;24.90;99.90
25280;DHT22;13225;47.804;12.116;2022-07-05T13:56:26;25.10;99.90
25280;DHT22;13225;47.804;12.116;2022-07-05T13:58:53;25.40;99.90
25280;DHT22;13225;47.804;12.116;2022-07-05T14:01:19;25.30;99.90
25280;DHT22;13225;47.804;12.116;2022-07-05T14:03:47;25.30;99.90
25280;DHT22;13225;47.804;12.116;2022-07-05T14:06:13;26.00;99.90
25280;DHT22;13225;47.804;12.116;2022-07-05T14:08:38;27.10;99.90
25280;DHT22;13225;47.804;12.116;2022-07-05T14:11:04;27.80;99.90
25280;DHT22;13225;47.804;12.116;2022-07-05T14:13:30;27.80;99.90
25280;DHT22;13225;47.804;12.116;2022-07-05T14:15:56;27.20;99.90
25280;DHT22;13225;47.804;12.116;2022-07-05T14:18:23;27.00;99.90
25280;DHT22;13225;47.804;12.116;2022-07-05T14:20:50;26.80;99.90
25280;DHT22;13225;47.804;12.116;2022-07-05T14:23:16;27.70;99.90
25280;DHT22;13225;47.804;12.116;2022-07-05T14:25:42;27.70;99.90
25280;DHT22;13225;47.804;12.116;2022-07-05T14:28:08;27.90;99.90
25280;DHT22;13225;47.804;12.116;2022-07-05T14:30:39;27.90;99.90
25280;DHT22;13225;47.804;12.116;2022-07-05T14:33:05;28.10;99.90
25280;DHT22;13225;47.804;12.116;2022-07-05T14:35:32;27.40;99.90
25280;DHT22;13225;47.804;12.116;2022-07-05T14:37:58;27.10;99.90
25280;DHT22;13225;47.804;12.116;2022-07-05T14:40:24;26.40;99.90
25280;DHT22;13225;47.804;12.116;2022-07-05T14:42:54;26.30;99.90
25280;DHT22;13225;47.804;12.116;2022-07-05T14:45:20;26.90;99.90
25280;DHT22;13225;47.804;12.116;2022-07-05T14:47:46;26.80;99.90
25280;DHT22;13225;47.804;12.116;2022-07-05T14:50:13;26.80;99.90
25280;DHT22;13225;47.804;12.116;2022-07-05T14:52:40;26.70;99.90
25280;DHT22;13225;47.804;12.116;2022-07-05T14:55:06;26.70;99.90
25280;DHT22;13225;47.804;12.116;2022-07-05T14:57:32;26.40;99.90
25280;DHT22;13225;47.804;12.116;2022-07-05T14:59:58;26.20;99.90
25280;DHT22;13225;47.804;12.116;2022-07-05T15:02:24;26.20;99.90
25280;DHT22;13225;47.804;12.116;2022-07-05T15:04:49;26.10;99.90
25280;DHT22;13225;47.804;12.116;2022-07-05T15:07:15;25.60;99.90
25280;DHT22;13225;47.804;12.116;2022-07-05T15:09:41;25.70;99.90
25280;DHT22;13225;47.804;12.116;2022-07-05T15:12:07;26.40;99.90
25280;DHT22;13225;47.804;12.116;2022-07-05T15:14:33;27.60;99.90
25280;DHT22;13225;47.804;12.116;2022-07-05T15:16:59;27.90;99.90
25280;DHT22;13225;47.804;12.116;2022-07-05T15:19:25;28.00;99.70
25280;DHT22;13225;47.804;12.116;2022-07-05T15:21:50;28.10;97.40
25280;DHT22;13225;47.804;12.116;2022-07-05T15:24:16;29.20;97.10
25280;DHT22;13225;47.804;12.116;2022-07-05T15:26:43;29.30;96.30
25280;DHT22;13225;47.804;12.116;2022-07-05T15:29:09;29.60;93.20
25280;DHT22;13225;47.804;12.116;2022-07-05T15:31:36;30.20;93.70
25280;DHT22;13225;47.804;12.116;2022-07-05T15:34:05;29.70;94.70
25280;DHT22;13225;47.804;12.116;2022-07-05T15:36:32;29.80;94.70
25280;DHT22;13225;47.804;12.116;2022-07-05T15:38:59;30.60;94.80
25280;DHT22;13225;47.804;12.116;2022-07-05T15:41:29;31.50;91.70
25280;DHT22;13225;47.804;12.116;2022-07-05T15:43:55;32.00;91.00
25280;DHT22;13225;47.804;12.116;2022-07-05T15:46:21;32.00;89.60
25280;DHT22;13225;47.804;12.116;2022-07-05T15:48:47;31.10;90.80
25280;DHT22;13225;47.804;12.116;2022-07-05T15:51:16;30.30;92.50
25280;DHT22;13225;47.804;12.116;2022-07-05T15:53:43;30.40;91.30
25280;DHT22;13225;47.804;12.116;2022-07-05T15:56:09;31.00;90.30
25280;DHT22;13225;47.804;12.116;2022-07-05T15:58:35;30.90;90.30